Time;durP1;ratioP1;P1;durP2;ratioP2;P2;SDS_P1;SDS_P2;PMS_P1;PMS_P2;Temp;Humidity;BMP_temperature;BMP_pressure;BME280_temperature;BME280_humidity;BME280_pressure;Samples;Min_cycle;Max_cycle;Signal;HPM_P1;HPM_P2
2022/05/30 00:00:18;;;;;;;4.38;0.80;;;;;;;10.69;71.74;101551.97;5057232;28;20041;-76
2022/05/30 00:02:43;;;;;;;1.70;0.60;;;;;;;10.67;71.68;101550.31;5058239;28;20028;-76
2022/05/30 00:05:10;;;;;;;3.33;1.00;;;;;;;10.64;71.69;101546.06;5057040;28;20082;-75
2022/05/30 00:07:37;;;;;;;2.67;0.82;;;;;;;10.63;71.68;101541.69;5057703;28;20044;-76
2022/05/30 00:10:05;;;;;;;2.83;0.93;;;;;;;10.62;71.70;101536.50;5057112;28;20096;-75
2022/05/30 00:12:30;;;;;;;4.30;0.98;;;;;;;10.59;71.68;101532.22;5057581;28;20056;-76
2022/05/30 00:14:56;;;;;;;3.00;1.10;;;;;;;10.55;71.96;101539.31;5057372;28;20504;-76
2022/05/30 00:17:21;;;;;;;2.67;0.90;;;;;;;10.54;71.63;101532.34;5056838;28;20081;-76
2022/05/30 00:19:46;;;;;;;2.95;1.25;;;;;;;10.52;71.76;101522.84;5056534;28;20033;-76
2022/05/30 00:22:14;;;;;;;2.95;1.00;;;;;;;10.50;71.83;101525.50;5057168;28;20047;-75
2022/05/30 00:24:41;;;;;;;0.77;0.63;;;;;;;10.48;71.99;101518.59;5056172;28;20047;-75
2022/05/30 00:27:07;;;;;;;4.30;1.08;;;;;;;10.46;71.74;101518.63;5056720;28;20040;-75
2022/05/30 00:29:32;;;;;;;7.78;1.30;;;;;;;10.45;72.00;101519.53;5056962;28;20063;-75
2022/05/30 00:31:58;;;;;;;3.45;1.23;;;;;;;10.43;72.01;101523.09;5057466;28;20382;-76
2022/05/30 00:34:24;;;;;;;3.08;0.90;;;;;;;10.41;71.95;101519.69;5017745;28;20083;-76
2022/05/30 00:36:49;;;;;;;1.88;1.00;;;;;;;10.39;71.92;101517.09;5056153;28;20070;-76
2022/05/30 00:39:15;;;;;;;5.53;1.33;;;;;;;10.36;72.13;101518.03;5055664;28;20044;-75
2022/05/30 00:41:41;;;;;;;1.17;0.88;;;;;;;10.35;72.10;101529.41;5057320;28;20090;-76
2022/05/30 00:44:06;;;;;;;4.65;1.10;;;;;;;10.34;72.12;101521.59;5056953;28;20045;-75
2022/05/30 00:46:32;;;;;;;2.53;1.00;;;;;;;10.31;72.02;101519.06;5056985;28;20219;-75
2022/05/30 00:49:06;;;;;;;4.47;1.00;;;;;;;10.30;72.19;101517.34;5056880;28;20032;-76
2022/05/30 00:51:47;;;;;;;1.75;0.82;;;;;;;10.27;71.99;101523.50;5043112;28;20020;-76
2022/05/30 00:54:17;;;;;;;2.35;1.10;;;;;;;10.25;72.18;101516.59;5056150;28;20032;-75
2022/05/30 00:56:49;;;;;;;2.92;1.15;;;;;;;10.24;72.21;101509.63;5057136;28;20276;-76
2022/05/30 00:59:14;;;;;;;2.65;0.95;;;;;;;10.22;72.25;101514.06;5056970;28;20288;-76
2022/05/30 01:01:40;;;;;;;1.67;1.10;;;;;;;10.19;72.15;101513.25;5056772;28;20067;-75
2022/05/30 01:06:58;;;;;;;2.25;1.10;;;;;;;10.16;72.45;101515.94;5056879;28;20067;-76
2022/05/30 01:09:36;;;;;;;4.63;1.23;;;;;;;10.14;72.30;101509.91;5056370;28;20045;-75
2022/05/30 01:12:04;;;;;;;5.50;0.97;;;;;;;10.13;72.33;101510.81;5036452;28;20365;-75
2022/05/30 01:14:34;;;;;;;4.70;0.98;;;;;;;10.12;72.65;101508.25;5049076;28;20331;-76
2022/05/30 01:17:02;;;;;;;2.78;1.10;;;;;;;10.10;72.46;101510.91;5056182;28;20051;-75
2022/05/30 01:19:55;;;;;;;3.85;1.17;;;;;;;10.09;72.64;101506.53;5057273;28;20047;-76
2022/05/30 01:22:32;;;;;;;2.70;1.08;;;;;;;10.08;72.69;101510.09;5045721;28;20036;-76
2022/05/30 01:25:12;;;;;;;2.15;1.00;;;;;;;10.07;72.74;101505.72;5056720;28;20282;-76
2022/05/30 01:27:37;;;;;;;1.90;1.08;;;;;;;10.06;72.85;101508.38;5056823;28;20040;-76
2022/05/30 01:30:10;;;;;;;4.15;1.40;;;;;;;10.05;72.78;101498.84;5054869;28;20099;-75
2022/05/30 01:32:36;;;;;;;1.65;0.90;;;;;;;10.03;72.87;101496.25;5056603;28;20020;-76
2022/05/30 01:35:02;;;;;;;3.80;0.88;;;;;;;10.03;72.98;101492.78;5056439;28;20063;-75
2022/05/30 01:37:27;;;;;;;3.13;0.90;;;;;;;10.02;73.03;101493.69;5056717;28;20144;-75
2022/05/30 01:39:53;;;;;;;4.53;1.08;;;;;;;10.01;73.13;101490.22;5055222;28;20281;-76
2022/05/30 01:42:18;;;;;;;1.00;0.80;;;;;;;10.00;73.22;101488.50;5054353;28;20052;-75
2022/05/30 01:44:44;;;;;;;1.58;0.95;;;;;;;10.00;73.29;101488.50;5056443;28;20332;-76
2022/05/30 01:47:10;;;;;;;4.25;1.20;;;;;;;10.00;73.15;101488.50;5054530;28;20029;-75
2022/05/30 01:49:35;;;;;;;4.93;1.05;;;;;;;9.99;73.17;101482.41;5055285;28;20324;-76
2022/05/30 01:52:01;;;;;;;3.50;1.35;;;;;;;9.99;73.07;101492.88;5056224;28;20048;-75
2022/05/30 01:54:26;;;;;;;5.13;2.17;;;;;;;9.99;73.22;101486.78;5056218;28;20043;-76
2022/05/30 01:56:51;;;;;;;2.10;1.02;;;;;;;9.99;73.51;101489.41;5056642;28;20049;-76
2022/05/30 01:59:17;;;;;;;1.40;1.30;;;;;;;9.97;73.34;101486.81;5057128;28;20041;-76
2022/05/30 02:01:44;;;;;;;3.45;1.10;;;;;;;9.98;73.36;101487.69;5060601;28;20044;-78
2022/05/30 02:04:10;;;;;;;4.15;0.80;;;;;;;9.97;73.37;101483.34;5060215;28;20473;-78
2022/05/30 02:06:35;;;;;;;1.52;0.98;;;;;;;9.97;73.68;101481.59;5060404;28;20103;-78
2022/05/30 02:09:02;;;;;;;2.72;1.00;;;;;;;9.96;73.52;101484.25;5060141;28;20037;-78
2022/05/30 02:11:28;;;;;;;3.78;1.77;;;;;;;9.97;73.50;101483.34;5060593;28;20028;-78
2022/05/30 02:13:53;;;;;;;3.13;1.10;;;;;;;9.95;73.86;101472.94;5060400;28;20380;-78
2022/05/30 02:19:04;;;;;;;3.55;1.15;;;;;;;9.95;73.62;101478.16;5060145;28;20063;-78
2022/05/30 02:21:34;;;;;;;3.30;1.15;;;;;;;9.95;73.65;101479.91;5060349;28;20229;-78
2022/05/30 02:24:01;;;;;;;1.42;1.00;;;;;;;9.96;74.00;101479.00;5060133;28;20043;-78
2022/05/30 02:26:26;;;;;;;2.10;1.30;;;;;;;9.95;74.07;101478.16;5058514;28;20032;-78
2022/05/30 02:28:52;;;;;;;2.45;1.00;;;;;;;9.95;73.90;101474.66;5060551;28;20233;-78
2022/05/30 02:31:17;;;;;;;1.90;0.98;;;;;;;9.96;74.08;101479.00;5059535;28;20181;-78
2022/05/30 02:36:39;;;;;;;2.42;1.02;;;;;;;9.95;73.91;101472.94;5060101;28;20044;-78
2022/05/30 02:39:05;;;;;;;1.38;0.73;;;;;;;9.95;74.03;101469.44;5060311;28;20328;-78
2022/05/30 02:41:31;;;;;;;4.20;0.95;;;;;;;9.96;74.06;101468.53;5059708;28;20029;-78
2022/05/30 02:43:57;;;;;;;3.30;1.27;;;;;;;9.95;74.14;101467.69;5059877;28;20037;-78
2022/05/30 02:46:23;;;;;;;2.42;1.00;;;;;;;9.96;74.16;101465.94;5059140;28;20037;-78
2022/05/30 02:48:49;;;;;;;2.10;0.80;;;;;;;9.96;74.30;101471.16;5058721;28;20154;-78
2022/05/30 02:51:14;;;;;;;1.42;0.98;;;;;;;9.96;74.19;101465.94;5057409;28;20029;-76
2022/05/30 02:53:39;;;;;;;2.33;1.00;;;;;;;9.96;74.25;101465.94;5059038;28;20056;-75
2022/05/30 02:56:05;;;;;;;2.92;1.25;;;;;;;9.95;74.48;101464.19;5059002;28;20040;-75
2022/05/30 02:58:31;;;;;;;1.65;1.00;;;;;;;9.94;74.42;101468.59;5057721;28;20332;-76
2022/05/30 03:00:56;;;;;;;2.83;1.40;;;;;;;9.94;74.26;101463.34;5059500;28;20049;-75
2022/05/30 03:03:22;;;;;;;3.83;1.20;;;;;;;9.95;74.38;101469.44;5058469;28;20125;-76
2022/05/30 03:05:47;;;;;;;2.60;1.48;;;;;;;9.94;74.41;101476.44;5057942;28;20056;-75
2022/05/30 03:08:13;;;;;;;2.25;0.82;;;;;;;9.94;74.59;101475.59;5058852;28;20041;-75
2022/05/30 03:10:38;;;;;;;1.98;1.15;;;;;;;9.94;74.31;101470.34;5059024;28;20336;-75
2022/05/30 03:13:05;;;;;;;2.08;0.82;;;;;;;9.94;74.57;101467.75;5057953;28;20079;-75
2022/05/30 03:15:31;;;;;;;4.30;1.08;;;;;;;9.94;74.76;101470.34;5058135;28;20032;-75
2022/05/30 03:17:57;;;;;;;1.90;1.02;;;;;;;9.93;74.74;101469.50;5058666;28;20612;-76
2022/05/30 03:20:23;;;;;;;2.08;1.10;;;;;;;9.93;74.85;101466.00;5058206;28;20229;-76
2022/05/30 03:22:48;;;;;;;2.67;0.90;;;;;;;9.93;74.67;101472.13;5056353;28;20047;-75
2022/05/30 03:25:15;;;;;;;4.35;1.15;;;;;;;9.93;74.75;101474.75;5056992;28;20237;-75
2022/05/30 03:27:41;;;;;;;2.97;1.23;;;;;;;9.92;74.90;101473.00;5051893;28;20079;-75
2022/05/30 03:30:08;;;;;;;4.35;1.00;;;;;;;9.93;74.78;101466.00;5048486;28;20041;-76
2022/05/30 03:32:33;;;;;;;1.45;0.98;;;;;;;9.93;75.11;101469.50;5056879;28;20041;-76
2022/05/30 03:34:59;;;;;;;1.27;0.85;;;;;;;9.94;74.86;101467.75;5057293;28;20062;-76
2022/05/30 03:37:25;;;;;;;3.53;0.88;;;;;;;9.93;74.82;101471.25;5055750;28;20037;-76
2022/05/30 03:39:51;;;;;;;2.25;1.08;;;;;;;9.93;74.93;101466.00;5056964;28;20099;-76
2022/05/30 03:42:16;;;;;;;3.22;1.13;;;;;;;9.93;74.82;101472.13;5054972;28;20064;-75
2022/05/30 03:44:42;;;;;;;1.35;0.93;;;;;;;9.92;75.05;101477.41;5056966;28;20040;-76
2022/05/30 03:47:08;;;;;;;1.98;0.85;;;;;;;9.92;74.84;101475.63;5055906;28;20348;-75
2022/05/30 03:49:34;;;;;;;3.15;1.48;;;;;;;9.92;74.81;101477.41;5057091;28;20062;-76
2022/05/30 03:51:59;;;;;;;2.97;1.00;;;;;;;9.91;74.88;101475.66;5038041;28;20066;-75
2022/05/30 03:54:25;;;;;;;1.52;1.15;;;;;;;9.90;74.88;101482.66;5054932;28;20045;-75
2022/05/30 03:56:51;;;;;;;0.85;0.82;;;;;;;9.89;74.90;101480.94;5056839;28;20341;-76
2022/05/30 03:59:16;;;;;;;1.52;0.80;;;;;;;9.89;75.05;101480.09;5054520;28;20032;-75
2022/05/30 04:01:42;;;;;;;2.20;0.82;;;;;;;9.88;75.07;101478.38;5056832;28;20108;-76
2022/05/30 04:04:07;;;;;;;3.67;1.27;;;;;;;9.88;75.04;101473.16;5054231;28;20036;-75
2022/05/30 04:06:32;;;;;;;3.30;1.30;;;;;;;9.87;75.07;101474.03;5055352;28;20358;-76
2022/05/30 04:08:58;;;;;;;5.40;1.38;;;;;;;9.86;75.12;101481.03;5054998;28;20103;-76
2022/05/30 04:11:23;;;;;;;1.80;1.05;;;;;;;9.86;75.20;101478.41;5056404;28;20043;-76
2022/05/30 04:13:49;;;;;;;4.22;1.17;;;;;;;9.85;75.20;101473.22;5056144;28;20141;-75
2022/05/30 04:16:15;;;;;;;1.58;1.08;;;;;;;9.84;75.33;101468.88;5055463;28;20246;-76
2022/05/30 04:18:41;;;;;;;1.38;0.85;;;;;;;9.84;75.41;101476.72;5056030;28;20052;-76
2022/05/30 04:21:09;;;;;;;4.38;1.17;;;;;;;9.84;75.43;101468.88;5038165;28;20248;-75
2022/05/30 04:23:35;;;;;;;1.92;0.70;;;;;;;9.83;75.43;101470.66;5055473;28;20036;-75
2022/05/30 04:26:07;;;;;;;2.15;1.15;;;;;;;9.83;75.54;101465.41;5055039;28;20076;-75
2022/05/30 04:28:32;;;;;;;1.27;1.00;;;;;;;9.85;75.74;101460.16;5055475;28;20037;-76
2022/05/30 04:30:58;;;;;;;1.23;0.90;;;;;;;9.83;75.64;101459.34;5054866;28;20072;-75
2022/05/30 04:33:23;;;;;;;4.63;1.17;;;;;;;9.83;75.73;101457.56;5055372;28;20189;-76
2022/05/30 04:35:49;;;;;;;2.00;1.00;;;;;;;9.85;75.72;101460.16;5056252;28;20128;-76
2022/05/30 04:38:14;;;;;;;1.20;0.90;;;;;;;9.85;75.65;101462.75;5054165;28;20120;-76
2022/05/30 04:40:40;;;;;;;3.45;1.00;;;;;;;9.86;75.40;101464.47;5054905;28;20044;-76
2022/05/30 04:43:05;;;;;;;2.30;0.85;;;;;;;9.85;75.39;101460.16;5053663;28;20063;-76
2022/05/30 04:45:30;;;;;;;2.95;1.05;;;;;;;9.86;75.36;101462.72;5056092;28;20037;-76
2022/05/30 04:47:56;;;;;;;2.97;1.05;;;;;;;9.86;75.34;101457.50;5055353;28;20036;-76
2022/05/30 04:50:21;;;;;;;1.95;0.73;;;;;;;9.86;75.34;101456.63;5053517;28;20060;-76
2022/05/30 04:52:47;;;;;;;2.05;1.10;;;;;;;9.86;75.39;101457.50;5054097;28;20390;-75
2022/05/30 04:55:15;;;;;;;3.33;1.10;;;;;;;9.87;75.50;101463.56;5055019;28;20247;-75
2022/05/30 04:57:48;;;;;;;1.13;0.73;;;;;;;9.87;75.24;101459.19;5055917;28;20040;-76
2022/05/30 05:00:17;;;;;;;1.45;0.73;;;;;;;9.87;75.46;101453.97;5054715;28;20045;-76
2022/05/30 05:02:42;;;;;;;1.02;0.80;;;;;;;9.88;75.63;101460.06;5055818;28;20306;-76
2022/05/30 05:05:08;;;;;;;1.63;0.82;;;;;;;9.88;75.83;101460.06;5055443;28;20055;-75
2022/05/30 05:07:45;;;;;;;1.23;0.90;;;;;;;9.89;75.93;101469.63;5054464;28;20055;-76
2022/05/30 05:10:45;;;;;;;1.63;0.82;;;;;;;9.89;76.12;101469.63;5054939;28;20079;-75
2022/05/30 05:13:10;;;;;;;2.05;0.90;;;;;;;9.90;76.28;101468.72;5054830;28;20049;-75
2022/05/30 05:15:35;;;;;;;1.20;0.88;;;;;;;9.91;76.23;101470.44;5055622;28;20100;-76
2022/05/30 05:18:02;;;;;;;1.15;0.70;;;;;;;9.91;76.15;101475.66;5053939;28;20049;-76
2022/05/30 05:20:27;;;;;;;2.00;1.13;;;;;;;9.92;76.25;101472.16;5055115;28;20044;-75
2022/05/30 05:22:53;;;;;;;2.45;1.00;;;;;;;9.92;76.32;101474.78;5055794;28;20044;-76
2022/05/30 05:25:18;;;;;;;4.05;1.10;;;;;;;9.93;76.72;101476.47;5054489;28;20387;-76
2022/05/30 05:27:47;;;;;;;1.95;0.98;;;;;;;9.94;76.68;101481.66;5054838;28;20029;-75
2022/05/30 05:30:13;;;;;;;1.38;0.80;;;;;;;9.94;76.95;101479.06;5053163;28;20033;-75
2022/05/30 05:32:38;;;;;;;1.73;0.82;;;;;;;9.95;76.88;101475.56;5055436;28;20143;-76
2022/05/30 05:35:04;;;;;;;3.05;1.08;;;;;;;9.95;76.80;101466.81;5057062;28;20041;-76
2022/05/30 05:37:32;;;;;;;3.10;1.10;;;;;;;9.95;76.84;101472.94;5058019;28;20240;-76
2022/05/30 05:39:57;;;;;;;3.10;0.70;;;;;;;9.96;76.81;101481.63;5058945;28;20070;-76
2022/05/30 05:42:22;;;;;;;1.00;0.60;;;;;;;9.95;76.77;101470.31;5058691;28;20439;-75
2022/05/30 05:44:48;;;;;;;0.98;0.68;;;;;;;9.97;76.69;101470.28;5058927;28;20284;-75
2022/05/30 05:47:13;;;;;;;1.48;0.90;;;;;;;9.97;76.85;101478.97;5056809;28;20037;-75
2022/05/30 05:49:39;;;;;;;0.60;0.50;;;;;;;9.96;76.88;101472.00;5056592;28;20371;-76
2022/05/30 05:52:05;;;;;;;1.30;0.50;;;;;;;9.97;76.77;101475.50;5057692;28;20052;-75
2022/05/30 05:54:31;;;;;;;0.73;0.68;;;;;;;9.98;76.76;101480.69;5058208;28;20044;-75
2022/05/30 05:56:57;;;;;;;1.08;0.30;;;;;;;9.98;76.46;101478.06;5056924;28;20040;-76
2022/05/30 05:59:22;;;;;;;1.73;0.55;;;;;;;9.98;76.20;101482.44;5056114;28;20140;-76
2022/05/30 06:01:48;;;;;;;2.58;0.70;;;;;;;9.98;76.59;101488.53;5058195;28;20036;-76
2022/05/30 06:04:13;;;;;;;0.70;0.50;;;;;;;10.02;76.78;101491.06;5056329;28;20275;-76
2022/05/30 06:06:39;;;;;;;0.90;0.70;;;;;;;10.02;77.00;101499.75;5058117;28;20359;-76
2022/05/30 06:09:06;;;;;;;2.67;0.63;;;;;;;10.03;76.83;101500.66;5058170;28;20243;-75
2022/05/30 06:11:32;;;;;;;1.52;0.70;;;;;;;10.03;76.83;101484.94;5057133;28;20037;-75
2022/05/30 06:13:57;;;;;;;1.88;0.77;;;;;;;10.04;77.15;101484.91;5053544;28;20578;-76
2022/05/30 06:16:25;;;;;;;1.25;0.60;;;;;;;10.04;76.83;101494.50;5056784;28;20037;-75
2022/05/30 06:18:53;;;;;;;1.30;0.90;;;;;;;10.03;76.60;101488.41;5056154;28;20025;-76
2022/05/30 06:21:20;;;;;;;2.40;0.73;;;;;;;10.04;76.50;101492.75;5054271;28;20275;-76
2022/05/30 06:23:46;;;;;;;4.60;1.27;;;;;;;10.03;76.77;101484.94;5058339;28;20047;-76
2022/05/30 06:26:13;;;;;;;1.45;0.70;;;;;;;10.04;75.77;101486.63;5056338;28;20104;-75
2022/05/30 06:28:39;;;;;;;1.20;0.70;;;;;;;10.06;76.42;101495.31;5056731;28;20067;-76
2022/05/30 06:31:27;;;;;;;2.63;0.70;;;;;;;10.08;76.56;101493.53;5058149;28;20345;-75
2022/05/30 06:33:53;;;;;;;0.68;0.40;;;;;;;10.08;76.50;101490.91;5052897;28;20264;-76
2022/05/30 06:36:20;;;;;;;2.22;0.60;;;;;;;10.07;76.02;101491.81;5060762;28;20037;-76
2022/05/30 06:38:47;;;;;;;3.53;0.85;;;;;;;10.09;75.78;101492.63;5051022;28;20041;-76
2022/05/30 06:41:21;;;;;;;2.80;0.93;;;;;;;10.09;75.77;101492.63;5056114;28;20036;-76
2022/05/30 06:43:47;;;;;;;2.05;0.65;;;;;;;10.08;75.36;101489.16;5057992;28;20043;-76
2022/05/30 06:46:15;;;;;;;0.63;0.63;;;;;;;10.11;76.06;101488.19;5055184;28;20308;-76
2022/05/30 06:48:41;;;;;;;1.20;0.77;;;;;;;10.12;76.05;101490.75;5057274;28;20221;-76
2022/05/30 06:51:10;;;;;;;1.60;0.80;;;;;;;10.13;76.01;101487.25;5048343;28;20143;-75
2022/05/30 06:53:35;;;;;;;1.92;0.80;;;;;;;10.16;75.65;101489.78;5056568;28;20134;-76
2022/05/30 06:56:01;;;;;;;1.73;0.75;;;;;;;10.18;75.75;101489.72;5053529;28;20309;-75
2022/05/30 06:58:28;;;;;;;2.15;0.63;;;;;;;10.18;74.55;101490.59;5064636;28;20336;-76
2022/05/30 07:01:00;;;;;;;3.83;1.00;;;;;;;10.22;73.72;101493.13;5064892;28;20426;-76
2022/05/30 07:03:25;;;;;;;4.80;0.93;;;;;;;10.21;72.66;101494.88;5056874;28;20142;-76
2022/05/30 07:05:51;;;;;;;3.58;0.60;;;;;;;10.24;72.59;101491.31;5064290;28;20032;-76
2022/05/30 07:08:16;;;;;;;1.05;0.60;;;;;;;10.23;72.97;101495.69;5055032;28;20036;-76
2022/05/30 07:10:42;;;;;;;1.40;0.60;;;;;;;10.26;72.96;101499.97;5055421;28;20041;-76
2022/05/30 07:13:08;;;;;;;2.42;0.90;;;;;;;10.25;73.15;101498.28;5057715;28;20064;-76
2022/05/30 07:15:37;;;;;;;1.25;0.40;;;;;;;10.26;73.07;101498.25;5056323;28;20091;-76
2022/05/30 07:18:10;;;;;;;3.67;0.70;;;;;;;10.24;72.59;101494.81;5055059;28;20501;-75
2022/05/30 07:20:36;;;;;;;1.52;0.60;;;;;;;10.24;72.95;101499.16;5046429;28;20336;-76
2022/05/30 07:23:01;;;;;;;2.45;0.75;;;;;;;10.25;73.29;101506.97;5054675;28;20079;-75
2022/05/30 07:25:26;;;;;;;1.33;0.60;;;;;;;10.25;73.32;101506.13;5060342;28;20237;-76
2022/05/30 07:27:52;;;;;;;1.23;0.57;;;;;;;10.26;73.48;101511.31;5056167;28;20232;-75
2022/05/30 07:30:17;;;;;;;0.60;0.60;;;;;;;10.27;73.83;101504.31;5054558;28;20244;-75
2022/05/30 07:32:43;;;;;;;0.88;0.63;;;;;;;10.26;74.17;101506.09;5056212;28;20029;-75
2022/05/30 07:35:08;;;;;;;3.08;0.60;;;;;;;10.26;73.61;101506.09;5056093;28;20040;-75
2022/05/30 07:37:35;;;;;;;1.52;0.60;;;;;;;10.28;73.53;101503.44;5055341;28;20121;-75
2022/05/30 07:40:01;;;;;;;1.85;0.85;;;;;;;10.28;73.99;101504.28;5056643;28;20044;-74
2022/05/30 07:42:26;;;;;;;0.45;0.45;;;;;;;10.30;74.85;101504.25;5051461;28;20033;-75
2022/05/30 07:44:51;;;;;;;2.78;0.68;;;;;;;10.32;75.10;101499.84;5057780;28;20155;-75
2022/05/30 07:47:18;;;;;;;0.70;0.60;;;;;;;10.32;75.41;101500.69;5055041;28;20307;-74
2022/05/30 07:49:44;;;;;;;0.52;0.40;;;;;;;10.35;75.27;101494.50;5054031;28;20039;-75
2022/05/30 07:52:09;;;;;;;0.77;0.40;;;;;;;10.35;74.82;101499.75;5055702;28;20044;-74
2022/05/30 07:54:35;;;;;;;2.53;0.65;;;;;;;10.35;74.49;101500.63;5059570;28;20048;-75
2022/05/30 07:57:04;;;;;;;3.92;0.60;;;;;;;10.36;74.66;101497.06;5053260;28;20040;-74
2022/05/30 07:59:29;;;;;;;0.45;0.43;;;;;;;10.37;74.61;101490.97;5054515;28;20060;-75
2022/05/30 08:01:56;;;;;;;2.50;0.60;;;;;;;10.38;74.19;101495.28;5056160;28;20079;-75
2022/05/30 08:04:22;;;;;;;1.27;0.60;;;;;;;10.39;73.77;101498.78;5054470;28;20275;-75
2022/05/30 08:06:47;;;;;;;0.95;0.60;;;;;;;10.41;73.53;101493.50;5055599;28;20286;-75
2022/05/30 08:09:13;;;;;;;3.03;0.68;;;;;;;10.40;72.89;101492.63;5054502;28;20075;-75
2022/05/30 08:11:38;;;;;;;1.35;0.60;;;;;;;10.41;72.78;101494.34;5054703;28;20044;-75
2022/05/30 08:14:03;;;;;;;2.05;0.80;;;;;;;10.42;72.84;101498.66;5051500;28;20056;-74
2022/05/30 08:16:29;;;;;;;3.70;1.17;;;;;;;10.43;72.10;101491.69;5055015;28;20042;-75
2022/05/30 08:18:54;;;;;;;1.30;0.60;;;;;;;10.42;71.96;101503.91;5063566;28;20043;-74
2022/05/30 08:21:19;;;;;;;2.85;0.85;;;;;;;10.43;72.27;101502.16;5040577;28;20311;-75
2022/05/30 08:23:45;;;;;;;1.50;1.40;;;;;;;10.43;72.15;101507.41;5061769;28;20372;-74
2022/05/30 08:26:13;;;;;;;1.73;0.60;;;;;;;10.44;72.38;101509.97;5053853;28;20071;-74
2022/05/30 08:28:39;;;;;;;2.47;0.80;;;;;;;10.45;72.35;101514.28;5061787;28;20538;-74
2022/05/30 08:31:05;;;;;;;1.42;0.50;;;;;;;10.46;72.54;101516.03;5044525;28;20042;-74
2022/05/30 08:33:30;;;;;;;2.42;0.60;;;;;;;10.46;71.80;101507.28;5038432;28;20067;-75
2022/05/30 08:36:02;;;;;;;1.52;0.90;;;;;;;10.50;72.13;101516.78;5053498;28;20037;-75
2022/05/30 08:38:33;;;;;;;1.45;0.57;;;;;;;10.49;71.90;101518.53;5060239;28;20040;-75
2022/05/30 08:43:48;;;;;;;2.47;0.70;;;;;;;10.54;71.57;101521.03;5057642;28;20055;-75
2022/05/30 08:46:47;;;;;;;2.87;0.53;;;;;;;10.58;71.53;101520.03;5055337;28;20107;-75
2022/05/30 08:49:22;;;;;;;1.92;0.50;;;;;;;10.56;70.85;101527.91;5056108;28;20037;-75
2022/05/30 08:52:06;;;;;;;4.55;0.70;;;;;;;10.58;71.12;101517.41;5053965;28;20037;-75
2022/05/30 08:55:08;;;;;;;3.95;0.95;;;;;;;10.60;70.41;101517.34;5050857;28;20033;-75
2022/05/30 08:57:59;;;;;;;3.35;0.90;;;;;;;10.61;70.64;101511.22;5054207;28;20170;-75
2022/05/30 09:00:33;;;;;;;0.70;0.68;;;;;;;10.63;70.79;101522.53;5054112;28;20367;-75
2022/05/30 09:03:10;;;;;;;1.92;0.52;;;;;;;10.61;71.16;101524.31;5055177;28;20099;-75
2022/05/30 09:05:42;;;;;;;3.13;0.65;;;;;;;10.61;71.39;101529.56;5059006;28;20040;-75
2022/05/30 09:08:13;;;;;;;4.22;1.95;;;;;;;10.59;70.91;101534.84;5057367;28;20079;-75
2022/05/30 09:10:56;;;;;;;3.53;0.70;;;;;;;10.59;70.58;101526.09;5056145;28;20070;-75
2022/05/30 09:13:29;;;;;;;3.70;0.60;;;;;;;10.60;70.58;101527.84;5049284;28;20044;-75
2022/05/30 09:16:25;;;;;;;4.35;0.70;;;;;;;10.61;71.10;101526.94;5051900;28;20032;-75
2022/05/30 09:18:53;;;;;;;1.42;0.65;;;;;;;10.65;71.16;101529.41;5052701;28;20044;-75
2022/05/30 09:21:21;;;;;;;5.13;1.13;;;;;;;10.65;71.58;101532.03;5047526;28;20063;-75
2022/05/30 09:23:47;;;;;;;4.33;0.70;;;;;;;10.63;70.84;101533.84;5053496;28;20039;-75
2022/05/30 09:26:16;;;;;;;3.97;0.80;;;;;;;10.63;70.77;101528.59;5054268;28;20070;-75
2022/05/30 09:28:44;;;;;;;0.80;0.60;;;;;;;10.65;70.88;101534.66;5054920;28;20025;-75
2022/05/30 09:31:35;;;;;;;4.60;1.80;;;;;;;10.70;70.94;101537.16;5054805;28;20040;-75
2022/05/30 09:34:32;;;;;;;2.50;0.70;;;;;;;10.72;70.15;101530.94;5052750;28;20040;-75
2022/05/30 09:36:58;;;;;;;1.92;0.60;;;;;;;10.72;69.65;101528.31;5045837;28;20313;-75
2022/05/30 09:39:24;;;;;;;1.88;0.60;;;;;;;10.72;69.43;101525.69;5053090;28;20045;-75
2022/05/30 09:41:55;;;;;;;3.58;0.70;;;;;;;10.75;69.47;101529.97;5051614;28;20033;-75
2022/05/30 09:44:29;;;;;;;2.08;0.68;;;;;;;10.78;69.39;101529.06;5053333;28;20040;-75
2022/05/30 09:47:15;;;;;;;1.42;0.60;;;;;;;10.78;69.44;101524.66;5051058;28;20078;-75
2022/05/30 09:49:46;;;;;;;3.45;0.85;;;;;;;10.78;69.46;101535.13;5050597;28;20064;-75
2022/05/30 09:52:34;;;;;;;1.83;0.60;;;;;;;10.78;69.20;101529.91;5052350;28;20278;-75
2022/05/30 09:55:20;;;;;;;2.17;0.60;;;;;;;10.79;69.49;101528.13;5058688;28;20044;-74
2022/05/30 09:57:46;;;;;;;3.97;1.10;;;;;;;10.76;69.89;101536.94;5052359;28;20346;-75
2022/05/30 10:00:18;;;;;;;4.63;1.05;;;;;;;10.75;70.61;101538.72;5053375;28;20055;-75
2022/05/30 10:02:45;;;;;;;2.33;0.90;;;;;;;10.78;70.96;101540.38;5051735;28;20059;-75
2022/05/30 10:05:13;;;;;;;2.53;1.20;;;;;;;10.79;71.27;101542.09;5051910;28;20078;-75
2022/05/30 10:07:51;;;;;;;6.80;1.10;;;;;;;10.79;71.23;101536.88;5052692;28;20049;-75
2022/05/30 10:10:21;;;;;;;1.15;0.63;;;;;;;10.82;71.82;101535.91;5050228;28;20036;-75
2022/05/30 10:12:57;;;;;;;1.25;0.60;;;;;;;10.85;72.20;101535.81;5053954;28;20049;-75
2022/05/30 10:15:32;;;;;;;1.08;0.50;;;;;;;10.88;72.15;101536.59;5052586;28;20033;-75
2022/05/30 10:18:12;;;;;;;2.35;0.75;;;;;;;10.90;72.11;101540.00;5062399;28;20042;-75
2022/05/30 10:21:00;;;;;;;1.52;0.50;;;;;;;10.91;72.08;101539.13;5067083;28;20031;-75
2022/05/30 10:28:14;;;;;;;2.08;0.95;;;;;;;10.93;72.43;101549.53;5061627;28;20094;-75
2022/05/30 10:30:05;;;;;;;8.02;0.93;;;;;;;10.96;72.98;101554.69;5059121;28;20090;-75
2022/05/30 10:32:39;;;;;;;2.75;0.80;;;;;;;10.99;72.43;101557.22;5038094;28;20060;-75
2022/05/30 10:35:04;;;;;;;3.65;1.08;;;;;;;11.01;72.52;101552.78;5057515;28;20075;-75
2022/05/30 10:37:36;;;;;;;1.23;0.60;;;;;;;11.05;72.39;101559.63;5065179;28;20041;-75
2022/05/30 10:40:23;;;;;;;2.97;1.08;;;;;;;11.10;72.16;101556.88;5055027;28;20298;-75
2022/05/30 10:42:58;;;;;;;3.10;1.10;;;;;;;11.15;71.95;101562.81;5058746;28;20082;-75
2022/05/30 10:45:33;;;;;;;2.90;0.73;;;;;;;11.18;71.81;101559.25;5062676;28;20564;-75
2022/05/30 10:48:01;;;;;;;2.65;0.93;;;;;;;11.22;72.10;101561.72;5058666;28;20346;-75
2022/05/30 10:50:50;;;;;;;3.63;0.83;;;;;;;11.24;72.12;101556.44;5070231;28;20044;-75
2022/05/30 10:53:34;;;;;;;;;;;;;;;11.27;72.02;101564.22;5055233;28;20289;-75
2022/05/30 10:56:09;;;;;;;3.67;0.82;;;;;;;11.28;72.01;101565.94;5057866;28;20353;-75
2022/05/30 10:58:44;;;;;;;5.15;0.70;;;;;;;11.29;72.00;101559.78;5050539;28;20279;-75
2022/05/30 11:01:34;;;;;;;3.60;0.90;;;;;;;11.27;71.11;101565.06;5053688;28;20056;-75
2022/05/30 11:04:18;;;;;;;2.10;1.05;;;;;;;11.30;71.50;101564.13;5056462;28;20025;-75
2022/05/30 11:06:47;;;;;;;2.30;0.98;;;;;;;11.30;72.14;101558.88;5057211;28;20343;-75
2022/05/30 11:09:33;;;;;;;5.85;1.08;;;;;;;11.31;72.12;101560.56;5059844;28;20036;-75
2022/05/30 11:12:13;;;;;;;4.53;1.00;;;;;;;11.27;70.68;101559.81;5056001;28;20045;-75
2022/05/30 11:15:17;;;;;;;5.25;0.90;;;;;;;11.28;70.87;101560.69;5060738;28;20370;-75
2022/05/30 11:17:53;;;;;;;5.57;1.60;;;;;;;11.29;72.41;101560.63;5058242;28;20072;-75
2022/05/30 11:20:39;;;;;;;4.32;0.90;;;;;;;11.31;72.52;101555.31;5072608;28;20060;-75
2022/05/30 11:23:06;;;;;;;3.30;0.90;;;;;;;11.31;71.57;101552.72;5052833;28;20076;-75
2022/05/30 11:26:16;;;;;;;2.08;0.90;;;;;;;11.28;70.45;101558.91;5056044;28;20045;-75
2022/05/30 11:29:05;;;;;;;1.40;0.70;;;;;;;11.29;70.51;101559.78;5046477;28;20051;-75
2022/05/30 11:31:41;;;;;;;6.20;0.95;;;;;;;11.32;70.97;101560.53;5064463;28;20435;-75
2022/05/30 11:34:16;;;;;;;3.20;0.93;;;;;;;11.35;71.01;101554.34;5065853;28;20021;-74
2022/05/30 11:37:13;;;;;;;2.85;0.70;;;;;;;11.39;71.11;101558.56;5070476;28;20088;-75
2022/05/30 11:39:58;;;;;;;1.00;0.70;;;;;;;11.40;70.41;101559.41;5072279;28;20052;-75
2022/05/30 11:42:46;;;;;;;2.15;1.10;;;;;;;11.40;69.42;101552.41;5071420;28;20320;-75
2022/05/30 11:45:53;;;;;;;2.53;0.80;;;;;;;11.42;69.60;101554.97;5070778;28;20036;-75
2022/05/30 11:48:29;;;;;;;0.93;0.60;;;;;;;11.46;69.35;101556.59;5064308;28;20047;-75
2022/05/30 11:51:14;;;;;;;5.18;1.00;;;;;;;11.47;69.50;101559.16;5081233;28;20035;-75
2022/05/30 11:54:01;;;;;;;3.42;0.77;;;;;;;11.50;69.23;101550.34;5071891;28;20068;-75
2022/05/30 11:56:34;;;;;;;2.33;0.70;;;;;;;11.52;70.07;101553.78;5076702;28;20040;-75